METAR AND TAF INFORMATION
METAR FOR EDDM
ADDS - METARS form results

(2309 UTC 22 May 2018)
Data provider http://aviationweather.gov/adds/metars/
 
METAR text: EDDM 222250Z VRB02KT CAVOK 15/13 Q1014 NOSIG
Conditions at: EDDM (MUNICH-FLUGHAFEN, DE) observed 2250 UTC 22 May 2018
Temperature: 15.0°C (59°F)
Dewpoint: 13.0°C (55°F) [RH = 88%]
Pressure (altimeter): 29.94 inches Hg (1014.0 mb)
Winds: variable direction winds at 2 MPH (2 knots; 1.0 m/s)
Visibility: 6 or more miles (10+ km)
Ceiling: ceiling and visibility are OK
Clouds: unknown
Weather: no significant weather observed at this time

METAR text: EDDM 222220Z 32003KT 9999 FEW060TCU SCT080 BKN130 15/13 Q1014 NOSIG
Conditions at: EDDM (MUNICH-FLUGHAFEN, DE) observed 2220 UTC 22 May 2018
Temperature: 15.0°C (59°F)
Dewpoint: 13.0°C (55°F) [RH = 88%]
Pressure (altimeter): 29.94 inches Hg (1014.0 mb)
Winds: from the NW (320 degrees) at 3 MPH (3 knots; 1.6 m/s)
Visibility: 6 or more miles (10+ km)
Ceiling: 13000 feet AGL
Clouds: few clouds at 6000 feet AGL
scattered clouds at 8000 feet AGL
broken clouds at 13000 feet AGL
Weather: no significant weather observed at this time

Forecast for: EDDM (MUNICH-FLUGHAFEN, DE)
Text: TAF EDDM 221700Z 2218/2324 VRB03KT CAVOK
Forecast period: 1800 UTC 22 May 2018 to 0800 UTC 23 May 2018
Forecast type: FROM: standard forecast or significant change
Winds: variable direction winds at 3 MPH (3 knots; 1.6 m/s)
Visibility: 6 or more miles (10+ km)
Clouds: not forecast
Weather: NSW  (no significant weather)
Forecast for: EDDM (MUNICH-FLUGHAFEN, DE)
Text: TAF EDDM 221700Z 2218/2324 VRB03KT CAVOK
Forecast period: 1800 UTC 22 May 2018 to 0800 UTC 23 May 2018
Forecast type: FROM: standard forecast or significant change
Winds: variable direction winds at 3 MPH (3 knots; 1.6 m/s)
Visibility: 6 or more miles (10+ km)
Clouds: not forecast
Weather: NSW  (no significant weather)
Forecast for: EDDM (MUNICH-FLUGHAFEN, DE)
Text: TAF EDDM 221700Z 2218/2324 VRB03KT CAVOK
Forecast period: 1800 to 2000 UTC 22 May 2018
Forecast type: TEMPORARY: The following changes expected for less than half the time period
Winds: from the S (180 degrees) at 17 MPH (15 knots; 7.8 m/s)
gusting to 29 MPH (25 knots; 13.0 m/s)
Ceiling: 4000 feet AGL
Clouds: broken clouds at 4000 feet AGL
Weather: TSRA  (rain associated with thunderstorm(s))
Forecast for: EDDM (MUNICH-FLUGHAFEN, DE)
Text: TAF EDDM 221700Z 2218/2324 VRB03KT CAVOK
Forecast period: 1800 to 2000 UTC 22 May 2018
Forecast type: TEMPORARY: The following changes expected for less than half the time period
Winds: from the S (180 degrees) at 17 MPH (15 knots; 7.8 m/s)
gusting to 29 MPH (25 knots; 13.0 m/s)
Ceiling: 4000 feet AGL
Clouds: broken clouds at 4000 feet AGL
Weather: TSRA  (rain associated with thunderstorm(s))
Forecast for: EDDM (MUNICH-FLUGHAFEN, DE)
Text: TAF EDDM 221700Z 2218/2324 VRB03KT CAVOK
Forecast period: 0400 to 1000 UTC 23 May 2018
Forecast type: TEMPORARY: The following changes expected for less than half the time period
Clouds: scattered clouds at 4000 feet AGL
Weather: SHRA  (rain showers)
Forecast for: EDDM (MUNICH-FLUGHAFEN, DE)
Text: TAF EDDM 221700Z 2218/2324 VRB03KT CAVOK
Forecast period: 0400 to 1000 UTC 23 May 2018
Forecast type: TEMPORARY: The following changes expected for less than half the time period
Clouds: scattered clouds at 4000 feet AGL
Weather: SHRA  (rain showers)
Forecast for: EDDM (MUNICH-FLUGHAFEN, DE)
Text: TAF EDDM 221700Z 2218/2324 VRB03KT CAVOK
Forecast period: 0800 to 1800 UTC 23 May 2018
Forecast type: BECOMING: Conditions expected to become as follows by 1000 UTC 23 May 2018
Winds: from the NE (50 degrees) at 8 MPH (7 knots; 3.6 m/s)
Visibility: 6 or more miles (10+ km)
Weather: NSW  (no significant weather)
Forecast for: EDDM (MUNICH-FLUGHAFEN, DE)
Text: TAF EDDM 221700Z 2218/2324 VRB03KT CAVOK
Forecast period: 0800 to 1800 UTC 23 May 2018
Forecast type: BECOMING: Conditions expected to become as follows by 1000 UTC 23 May 2018
Winds: from the NE (50 degrees) at 8 MPH (7 knots; 3.6 m/s)
Visibility: 6 or more miles (10+ km)
Weather: NSW  (no significant weather)
Forecast for: EDDM (MUNICH-FLUGHAFEN, DE)
Text: TAF EDDM 221700Z 2218/2324 VRB03KT CAVOK
Forecast period: 1400 to 2000 UTC 23 May 2018
Forecast type: TEMPORARY: The following changes expected for less than half the time period
Winds: from the SSE (160 degrees) at 17 MPH (15 knots; 7.8 m/s)
gusting to 29 MPH (25 knots; 13.0 m/s)
Ceiling: 4000 feet AGL
Clouds: broken clouds at 4000 feet AGL
Weather: TSRA  (rain associated with thunderstorm(s))
Forecast for: EDDM (MUNICH-FLUGHAFEN, DE)
Text: TAF EDDM 221700Z 2218/2324 VRB03KT CAVOK
Forecast period: 1400 to 2000 UTC 23 May 2018
Forecast type: TEMPORARY: The following changes expected for less than half the time period
Winds: from the SSE (160 degrees) at 17 MPH (15 knots; 7.8 m/s)
gusting to 29 MPH (25 knots; 13.0 m/s)
Ceiling: 4000 feet AGL
Clouds: broken clouds at 4000 feet AGL
Weather: TSRA  (rain associated with thunderstorm(s))
Forecast for: EDDM (MUNICH-FLUGHAFEN, DE)
Text: TAF EDDM 221700Z 2218/2324 VRB03KT CAVOK
Forecast period: 1800 UTC 23 May 2018 to 0000 UTC 24 May 2018
Forecast type: BECOMING: Conditions expected to become as follows by 2000 UTC 23 May 2018
Winds: variable direction winds at 3 MPH (3 knots; 1.6 m/s)
Visibility: 6 or more miles (10+ km)
Weather: NSW  (no significant weather)
Forecast for: EDDM (MUNICH-FLUGHAFEN, DE)
Text: TAF EDDM 221700Z 2218/2324 VRB03KT CAVOK
Forecast period: 1800 UTC 23 May 2018 to 0000 UTC 24 May 2018
Forecast type: BECOMING: Conditions expected to become as follows by 2000 UTC 23 May 2018
Winds: variable direction winds at 3 MPH (3 knots; 1.6 m/s)
Visibility: 6 or more miles (10+ km)
Weather: NSW  (no significant weather)

 AIRPORT MAP

 RUNWAY INFORMATION
Runway 08L Runway length 13123 ft Runway width 197 ft
Runway elevation 1467 ft Runway displaced threshold 0 ft Runway heading 83
Runway 26R Runway length 13123 ft Runway width 197 ft
Runway elevation 1449 ft Runway displaced threshold 0 ft Runway heading 263
Runway 08R Runway length 13123 ft Runway width 197 ft
Runway elevation 1486 ft Runway displaced threshold 0 ft Runway heading 83
Runway 26L Runway length 13123 ft Runway width 197 ft
Runway elevation 1470 ft Runway displaced threshold 0 ft Runway heading 263

 AIRPORT FREQUENCIES
Type ACC Name RADAR Frequency 123.9 MHZ
Type ARR Name ARR Frequency 120.775 MHZ
Type ATIS Name ATIS Frequency 123.125 MHZ
Type CLD Name CLNC DEL Frequency 121.725 MHZ
Type DIR Name DIRECTOR Frequency 118.825 MHZ
Type GND Name GND Frequency 119.4 MHZ
Type INFO Name INFO Frequency 120.65 MHZ
Type RDR Name LCL RADAR Frequency 131.225 MHZ
Type RMP Name Apron 2 Frequency 121.7 MHZ
Type RMP Name Apron 1 Frequency 121.775 MHZ
Type RMP Name Aron 3 Frequency 121.925 MHZ
Type TWR Name TWR Frequency 118.7 MHZ

 AIRPORT NEAR NAVIGATION AIDS
Type DME Name Munchen Frequency 116000 KHZ
Type DME Name Munchen Frequency 108600 KHZ
Type NDB Name Munchen Frequency 369 KHZ
Type NDB Name Munchen Frequency 338 KHZ
Type NDB Name Munchen Frequency 358 KHZ
Type NDB Name Munchen Frequency 400 KHZ
Type VOR-DME Name Munchen Frequency 112300 KHZ



Powered by Virtual Airlines Manager [v2.6.2]